Loisir ou Compétition : Rejoignez un Club de la Fédération

Résultats

CHALLENGE LUC VUILLET

LA SIMARD

MASS Dames

Jury de Compétition

Délégué Technique :
CLOSSET EDITH (MJ)
D.T. Adjoint :
 
Dir. Epreuve :
ROSSERO JEAN LOUIS (MJ)

Caractéristiques de la Piste

Piste :
Site de Repli
Distance :
3,5 km
Point Haut :
 
Point Bas :
 
Montée Tot. :
 
Montée Max. :
 
Homologation :
 

Pénalité Appliquée :
 
Coefficient :
 

Catégorie :
U13
Style :
L
Clt Dos Clt/Cat Code An Nom Prénom Com Club Temps Ecart Points
Classés
1 317 1/U13 FFS2696717 2007 RUFENACHT STECY MJ ES SAUGETTE 11:26.1 00:00.0
2 306 2/U13 LCN11795445 2007 JEUNET JEANNIE MJ SC GRANDVAUX 11:43.6 00:17.5
3 315 3/U13 FFS2701753 2008 CAMELIN LAURA MJ SC ABBAYE 12:07.0 00:40.9
4 304 4/U13 FFS2701752 2008 BOUILLET ELSA MJ SC ABBAYE 12:19.8 00:53.7
5 314 5/U13 LCN11797052 2007 LETOUBLON CLARA MJ OYE-PALLET 12:23.4 00:57.3
6 323 6/U13 FFS2697111 2007 GRILLON LEANE MJ SC FRASNE DR 12:39.6 01:13.5
7 332 7/U13 LCN11797048 2007 LALLIET ALICE MJ OYE-PALLET 12:40.4 01:14.3
8 312 8/U13 FFS2679940 2007 VINCENT MATHILDE MJ SKI ROUSSES 12:41.2 01:15.1
9 310 9/U13 LCN11796808 2007 PERROT AUDET EVA MJ DAMPRICHARD 12:42.7 01:16.6
10 308 10/U13 FFS2698478 2007 TOK CEYLIN MJ BOIS D'AMONT 12:43.5 01:17.4
11 333 11/U13 FFS2691773 2007 BRENIAUX GAETANE MJ PREMANON SC 12:44.7 01:18.6
12 303 12/U13 FFS2696748 2007 FAIVRE EMIE MJ ES SAUGETTE 12:45.4 01:19.3
13 326 13/U13 FFS2696743 2007 HENRIET LISA MJ ES SAUGETTE 12:46.1 01:20.0
14 328 14/U13 LCN11795039 2007 ARDIET VICTORIA A.S MOUTHE 12:47.3 01:21.2
15 322 15/U13 FFS2692324 2008 DUPONT LINNA MJ OLYMP MT DOR 12:47.8 01:21.7
16 329 16/U13 LCN11795439 2007 FUMEY NORA MJ SC GRANDVAUX 12:54.2 01:28.1
17 313 17/U13 FFS2679939 2007 MARTIN ALICE MJ SKI ROUSSES 13:11.2 01:45.1
18 307 18/U13 LCN11797958 2008 ANDRE LEANE MJ VAL MORTEAU 13:15.5 01:49.4
19 305 19/U13 FFS2691782 2007 DURAND ELSA MJ PREMANON SC 13:16.2 01:50.1
20 320 20/U13 FFS2682775 2007 HOOFT CELIA LY SC LOMPNES 13:18.0 01:51.9
21 316 21/U13 LCN11795459 2007 MANZONI LENA MJ SC GRANDVAUX 13:43.7 02:17.6
22 325 22/U13 LCN11795441 2008 MARGUIER LEA MJ OYE-PALLET 13:45.3 02:19.2
23 327 23/U13 FFS2681161 2007 CESPEDES EMMA LY SC BRENOD 13:55.2 02:29.1
24 309 24/U13 FFS2698143 2008 LESAGE NORAH MJ PREMANON SC 14:03.5 02:37.4
25 324 25/U13 LCN11798704 2008 MOREAUX ZOE MJ BOIS D'AMONT 14:08.3 02:42.2
26 318 26/U13 FFS2681160 2007 CESPEDES CLEMENCE LY SC BRENOD 14:09.5 02:43.4
27 334 27/U13 LCN11795466 2008 VERJUS ELINE MJ SC GRANDVAUX 14:12.9 02:46.8
28 321 28/U13 LCN11796835 2008 CLERC MELINA MJ SMBM/MORBIER 14:30.5 03:04.4
29 337 29/U13 FFS2685782 2008 BAILLY SALINS MELISSA MJ SKI ROUSSES 14:31.7 03:05.6
30 335 30/U13 FFS2682271 2007 BEAUDON JADE LY CS VALROMEY 14:53.4 03:27.3
31 338 31/U13 FFS2702473 2007 GUIGUE AMANDA MJ HT JURA SKI 14:57.3 03:31.2
32 311 32/U13 FFS2696499 2007 TROIANO MONA LY SC LOMPNES 14:57.7 03:31.6
33 336 33/U13 LCN11808946 2008 DOGLIO ANGELE MJ BOIS D'AMONT 15:12.7 03:46.6
34 330 34/U13 LCN11797387 2007 LOPES ANNA MJ BOIS D'AMONT 15:39.6 04:13.5
35 319 35/U13 FFS2693352 2008 SEVESSAND LOANE MJ HT JURA SKI 15:42.7 04:16.6
36 302 36/U13 FFS2700051 2008 GRENARD ERINE MJ HT JURA SKI 17:45.8 06:19.7
Non partants
331 LCN11797394 2008 LACHAMBRE ELINE MJ BOIS D'AMONT